SKVP

Details ICAO SKVP (VUP)
Name ALFONSO LOPEZ PUMAREJO
Region Colombia
Timezone America/Bogota (UTC-5.0)
Plans Departing 3
Arriving 7
Stats Elevation 456 ft / 139 m (AMSL)
Location 10.435040° -73.249505°
Runways 1
Magnetic Variation 8.618° W
Sunrise 2017-12-16 11:04:38 UTC / 2017-12-16 06:04:38 Local
Sunset 2017-12-16 22:35:35 UTC / 2017-12-16 17:35:35 Local
Advertisement - Login to hide

Runways

ID Width Length Bearing (true) Bearing (mag) Surface Threshold Offset Overrun Length
02 98 ft / 30 m 6,906 ft / 2,105 m 9.45° 18.07° Asphalt 0 ft / 0 m 0 ft / 0 m
20 98 ft / 30 m 6,906 ft / 2,105 m 189.45° 198.07° Asphalt 0 ft / 0 m 0 ft / 0 m

Map

Weather


0- 5 10 15 20 25 30 35+ Temperature / ° C

Clouds and Precipitation
Forecast for 2017-12-17 00:00 UTC. Updated 2 hours ago

Ground ~20,000 ft ~40,000 ft Winds

METAR

SKVP 170000Z 07014KT 9999 NSC 29/15 A2983

TAF

Not found

Frequencies

Tower 118.00 MHz TWR
Warning: Do not use this data for real-world aviation or navigation. No guarantee of current accuracy is given.